Hayden, CO (81639)

12:49 PM MDT am 24. Oktober 2014 (GMT -0600)
Yampa Valley | Change Station
CLOSE
Current Station
Flughafen
Location: Hayden,
Höhe: 6601 ft
Wetterstationen in der Umgebung

Höhe 6601 ft 40.48 °N, 107.22 °W | Updated 14 minutes ago

Clear
Heiter
64 °F
gefühlte 64 °F
N
0
Wind Wechselnd Wind aus Nord

Heute
Max. -- | schwach -- °F
--% Regenrisiko
Gestern
Max. -- | schwach -- °F
Precip. -- inch
7:29 AM 6:15 PM
Neumond, 1% visible
Druck 30.32 inch
Sichtweite 10.0 Meilen
Wolken Heiter
Taupunkt 28 °F
Feuchtigkeit 26%
Regen 0.00 inch
Schneehöhe Nicht verfügbar..
UV 5 von 12
Pollen 1.80 von 12
Luftqualität Nicht verfügbar..
Flu Activity Sporadic
METAR KHDN 241835Z AUTO 00000KT 10SM CLR 18/M02 A3032 RMK AO1

More Conditions Fewer Conditions

Druck 30.32 inch
Sichtweite 10.0 Meilen
Wolken Heiter
Taupunkt 28 °F
Feuchtigkeit 26%
Regen 0.00 inch
Schneehöhe Nicht verfügbar..
UV 5 von 12
Pollen 1.80 von 12
Luftqualität Nicht verfügbar..
Flu Activity Sporadic
METAR KHDN 241835Z AUTO 00000KT 10SM CLR 18/M02 A3032 RMK AO1

More Conditions Fewer Conditions

10-Day Weather Forecast

Almanac

Astronomie

Oct. 24, 2014 Aufgang Untergang
Genaue Zeit 07:29 MDT 18:15 MDT
Bürgerliche Dämmerung 07:02 MDT 18:43 MDT
Nautische Dämmerung 06:30 MDT 19:15 MDT
Astronomische Dämmerung 05:58 MDT 19:47 MDT
Mond 08:11 MDT 18:57 MDT
Länge des sichtbaren Lichts 11h 41m
Tageslänge
10h 46m
Tomorrow will be 2m 30s shorter.
Neumond, 1% of the Moon is Illuminated
Heute
Neumond
Okt 30
Erstes Viertel
Nov 6
Vollmond
Nov 14
Letztes Viertel
Nov 22
Neu

Heutige Rekorde

State Highs State Lows

Community

WunderPhotos

Upload Photos

1,764,634 Fotos hochgeladen!

Nearby

Schneehöhe

Station Depth Höhe
Dry Lake 0 in 8400 ft
Rabbit Ears 0 in 9400 ft
Arapaho Ridge 1 in 10960 ft
Willow Creek Pass 0 in 9540 ft
Rawah 1 in 9020 ft

Erdbebenaktivität

Stadt Distance Mag. Time & Date
No recent earthquake activity has been reported nearby.
Minimum magnitude displayed is 2.5.

küstennahe Wassertemperaturen

Ort Temperatur
Kein Stationsbericht

Wetterstationen in der Umgebung